Mazarn, Arkansas
Current Conditions -  °F | °C
As of 4:53 AM on Saturday 20 Dec 2014 (Local Time) from KHOT Reporting Station
Overcast Overcast  
Wind Chill: 40°   Ceiling: 4300
Heat Index: 40°   Visibility: 9mi
Dew Point: 37°   Wind: 3mph
Humidity: 89%   Direction: 80°E
Pressure: 30.23"   Gusts: NA
Location:  34.3467°N, 93.3187°W
Report Text: KHOT 201053Z AUTO 08003KT 9SM OVC043 04/03 A3023 RMK AO2 SLP237 T00440028
Loading
Personal Weather Stations






























Interactive Weather Map New forecast layout! Learn more

10-Day Weather Forecast

Advertisements
Track Severe Weather on mobile